createdAt,value
2019-05-25T00:01:01.935Z,14.57
2019-05-25T00:02:01.940Z,14.54
2019-05-25T00:03:54.853Z,14.54
2019-05-25T00:04:54.864Z,14.50
2019-05-25T00:06:47.777Z,14.43
2019-05-25T00:07:47.784Z,14.42
2019-05-25T00:09:41.196Z,14.42
2019-05-25T00:10:41.209Z,14.43
2019-05-25T00:12:34.130Z,14.33
2019-05-25T00:13:34.127Z,14.22
2019-05-25T00:15:27.539Z,14.15
2019-05-25T00:16:27.545Z,14.15
2019-05-25T00:18:20.459Z,14.20
2019-05-25T00:19:20.470Z,14.18
2019-05-25T00:21:14.313Z,14.28
2019-05-25T00:22:13.393Z,14.29
2019-05-25T00:24:12.094Z,14.24
2019-05-25T00:25:06.809Z,14.17
2019-05-25T00:27:00.239Z,14.21
2019-05-25T00:28:00.224Z,14.22
2019-05-25T00:29:53.139Z,14.17
2019-05-25T00:30:53.147Z,14.24
2019-05-25T00:32:46.063Z,14.24
2019-05-25T00:33:46.069Z,14.22
2019-05-25T00:35:38.983Z,14.27
2019-05-25T00:36:38.990Z,14.17
2019-05-25T00:38:31.900Z,14.17
2019-05-25T00:39:31.909Z,14.14
2019-05-25T00:41:25.327Z,14.06
2019-05-25T00:42:25.327Z,14.06
2019-05-25T00:44:18.238Z,13.97
2019-05-25T00:45:18.255Z,13.95
2019-05-25T00:47:11.161Z,13.92
2019-05-25T00:48:11.169Z,13.85
2019-05-25T00:50:04.079Z,13.73
2019-05-25T00:51:04.092Z,13.73
2019-05-25T00:52:57.011Z,13.73
2019-05-25T00:53:57.011Z,13.70
2019-05-25T00:55:49.924Z,13.79
2019-05-25T00:56:49.931Z,13.77
2019-05-25T00:58:42.844Z,13.78
2019-05-25T00:59:42.851Z,13.70
2019-05-25T01:01:35.765Z,13.64
2019-05-25T01:02:35.770Z,13.67
2019-05-25T01:04:28.677Z,13.55
2019-05-25T01:05:28.689Z,13.57
2019-05-25T01:07:21.602Z,13.49
2019-05-25T01:08:21.606Z,13.41
2019-05-25T01:10:14.516Z,13.33
2019-05-25T01:11:14.525Z,13.32
2019-05-25T01:13:07.442Z,13.36
2019-05-25T01:14:07.444Z,13.32
2019-05-25T01:16:00.862Z,13.29
2019-05-25T01:17:00.857Z,13.15
2019-05-25T01:18:53.771Z,13.20
2019-05-25T01:19:53.778Z,13.12
2019-05-25T01:21:46.699Z,13.05
2019-05-25T01:22:46.703Z,13.01
2019-05-25T01:24:44.537Z,13.05
2019-05-25T01:25:39.624Z,12.93
2019-05-25T01:27:32.537Z,12.85
2019-05-25T01:28:32.542Z,12.87
2019-05-25T01:30:25.944Z,12.95
2019-05-25T01:31:25.956Z,12.90
2019-05-25T01:33:18.868Z,12.93
2019-05-25T01:34:18.874Z,12.96
2019-05-25T01:36:11.789Z,12.90
2019-05-25T01:37:11.792Z,12.92
2019-05-25T01:39:04.701Z,12.92
2019-05-25T01:40:04.711Z,12.93
2019-05-25T01:41:57.624Z,13.01
2019-05-25T01:42:57.627Z,12.89
2019-05-25T01:44:50.540Z,13.03
2019-05-25T01:45:50.548Z,13.08
2019-05-25T01:47:43.467Z,13.01
2019-05-25T01:48:43.466Z,13.05
2019-05-25T01:50:36.375Z,12.93
2019-05-25T01:51:36.383Z,12.95
2019-05-25T01:53:29.790Z,12.97
2019-05-25T01:54:29.797Z,12.92
2019-05-25T01:56:23.201Z,12.89
2019-05-25T01:57:23.207Z,12.83
2019-05-25T01:59:16.115Z,12.92
2019-05-25T02:00:16.127Z,12.86
2019-05-25T02:02:09.039Z,12.79
2019-05-25T02:03:09.090Z,12.77
2019-05-25T02:05:02.453Z,12.79
2019-05-25T02:06:02.459Z,12.75
2019-05-25T02:07:55.371Z,12.70
2019-05-25T02:08:55.377Z,12.75
2019-05-25T02:10:48.301Z,12.78
2019-05-25T02:11:48.293Z,12.87
2019-05-25T02:13:41.207Z,12.95
2019-05-25T02:14:41.215Z,12.92
2019-05-25T02:16:34.619Z,12.89
2019-05-25T02:17:34.625Z,12.79
2019-05-25T02:19:27.541Z,12.77
2019-05-25T02:20:27.591Z,12.65
2019-05-25T02:22:20.459Z,12.62
2019-05-25T02:23:20.479Z,12.57
2019-05-25T02:25:18.284Z,12.47
2019-05-25T02:26:13.877Z,12.47
2019-05-25T02:28:06.792Z,12.46
2019-05-25T02:29:06.800Z,12.46
2019-05-25T02:30:59.705Z,12.45
2019-05-25T02:31:59.716Z,12.46
2019-05-25T02:33:53.120Z,12.37
2019-05-25T02:34:53.129Z,12.50
2019-05-25T02:36:46.067Z,12.62
2019-05-25T02:37:46.045Z,12.62
2019-05-25T02:39:38.954Z,12.68
2019-05-25T02:40:38.965Z,12.67
2019-05-25T02:42:31.886Z,12.83
2019-05-25T02:43:31.897Z,12.78
2019-05-25T02:45:24.800Z,12.85
2019-05-25T02:46:24.810Z,12.85
2019-05-25T02:48:17.726Z,12.89
2019-05-25T02:49:17.730Z,12.93
2019-05-25T02:51:10.645Z,12.89
2019-05-25T02:52:10.646Z,12.89
2019-05-25T02:54:03.555Z,12.96
2019-05-25T02:55:03.563Z,12.93
2019-05-25T02:56:56.474Z,13.04
2019-05-25T02:57:56.489Z,13.03
2019-05-25T02:59:49.388Z,13.05
2019-05-25T03:00:49.397Z,13.11
2019-05-25T03:02:42.323Z,13.17
2019-05-25T03:03:42.315Z,13.32
2019-05-25T03:05:35.223Z,13.45
2019-05-25T03:06:35.233Z,13.45
2019-05-25T03:08:28.636Z,13.45
2019-05-25T03:09:28.647Z,13.45
2019-05-25T03:11:21.559Z,13.63
2019-05-25T03:12:21.563Z,13.52
2019-05-25T03:14:14.474Z,13.54
2019-05-25T03:15:14.483Z,13.62
2019-05-25T03:17:07.396Z,13.66
2019-05-25T03:18:07.400Z,13.63
2019-05-25T03:20:00.308Z,13.77
2019-05-25T03:21:00.318Z,13.64
2019-05-25T03:22:53.231Z,13.77
2019-05-25T03:23:53.237Z,13.77
2019-05-25T03:25:49.534Z,13.70
2019-05-25T03:26:46.159Z,13.75
2019-05-25T03:28:39.575Z,13.75
2019-05-25T03:29:39.585Z,13.77
2019-05-25T03:31:32.988Z,13.66
2019-05-25T03:32:32.998Z,13.62
2019-05-25T03:34:25.902Z,13.60
2019-05-25T03:35:25.924Z,13.57
2019-05-25T03:37:18.843Z,13.62
2019-05-25T03:38:18.840Z,13.51
2019-05-25T03:40:11.748Z,13.57
2019-05-25T03:41:11.756Z,13.54
2019-05-25T03:43:04.668Z,13.67
2019-05-25T03:44:04.673Z,13.70
2019-05-25T03:45:57.580Z,13.67
2019-05-25T03:46:57.590Z,13.66
2019-05-25T03:48:50.504Z,13.60
2019-05-25T03:49:50.511Z,13.69
2019-05-25T03:51:43.425Z,13.60
2019-05-25T03:52:43.432Z,13.54
2019-05-25T03:54:36.335Z,13.41
2019-05-25T03:55:36.347Z,13.41
2019-05-25T03:57:29.266Z,13.33
2019-05-25T03:58:29.266Z,13.32
2019-05-25T04:00:22.177Z,13.33
2019-05-25T04:01:22.187Z,13.30
2019-05-25T04:03:15.099Z,13.42
2019-05-25T04:04:15.105Z,13.44
2019-05-25T04:06:08.008Z,13.48
2019-05-25T04:07:08.021Z,13.54
2019-05-25T04:09:00.940Z,13.45
2019-05-25T04:10:01.078Z,13.33
2019-05-25T04:11:53.856Z,13.45
2019-05-25T04:12:53.863Z,13.45
2019-05-25T04:14:46.774Z,13.49
2019-05-25T04:15:46.782Z,13.39
2019-05-25T04:17:39.699Z,13.38
2019-05-25T04:18:39.699Z,13.38
2019-05-25T04:20:32.610Z,13.44
2019-05-25T04:21:32.618Z,13.57
2019-05-25T04:23:25.537Z,13.55
2019-05-25T04:24:25.540Z,13.55
2019-05-25T04:26:22.365Z,13.59
2019-05-25T04:27:18.457Z,13.60
2019-05-25T04:29:11.372Z,13.85
2019-05-25T04:30:11.378Z,13.79
2019-05-25T04:32:04.296Z,13.99
2019-05-25T04:33:04.300Z,14.04
2019-05-25T04:34:57.209Z,14.09
2019-05-25T04:35:57.221Z,14.24
2019-05-25T04:37:50.140Z,14.35
2019-05-25T04:38:50.421Z,14.43
2019-05-25T04:40:43.053Z,14.32
2019-05-25T04:41:43.063Z,14.33
2019-05-25T04:43:35.981Z,14.47
2019-05-25T04:44:35.984Z,14.50
2019-05-25T04:46:28.894Z,14.47
2019-05-25T04:47:28.906Z,14.55
2019-05-25T04:49:21.824Z,14.62
2019-05-25T04:50:21.830Z,14.65
2019-05-25T04:52:14.744Z,14.65
2019-05-25T04:53:14.751Z,14.81
2019-05-25T04:55:07.660Z,14.80
2019-05-25T04:56:07.727Z,14.94
2019-05-25T04:58:00.596Z,14.88
2019-05-25T04:59:00.600Z,14.91
2019-05-25T05:00:53.511Z,14.98
2019-05-25T05:01:53.524Z,14.89
2019-05-25T05:03:46.437Z,14.80
2019-05-25T05:04:46.448Z,14.72
2019-05-25T05:06:39.362Z,14.77
2019-05-25T05:07:39.368Z,14.81
2019-05-25T05:09:32.289Z,14.89
2019-05-25T05:10:32.301Z,14.94
2019-05-25T05:12:25.210Z,14.98
2019-05-25T05:13:25.215Z,14.84
2019-05-25T05:15:18.127Z,14.77
2019-05-25T05:16:18.180Z,14.84
2019-05-25T05:18:11.069Z,14.84
2019-05-25T05:19:11.059Z,14.80
2019-05-25T05:21:03.982Z,14.91
2019-05-25T05:22:06.029Z,14.86
2019-05-25T05:23:56.901Z,14.88
2019-05-25T05:24:56.907Z,14.81
2019-05-25T05:26:56.005Z,14.69
2019-05-25T05:27:49.830Z,14.83
2019-05-25T05:29:42.748Z,14.75
2019-05-25T05:30:42.753Z,14.72
2019-05-25T05:32:35.666Z,14.77
2019-05-25T05:33:35.671Z,14.72
2019-05-25T05:35:28.582Z,14.77
2019-05-25T05:36:28.594Z,14.80
2019-05-25T05:38:21.513Z,14.88
2019-05-25T05:39:21.518Z,14.75
2019-05-25T05:41:14.963Z,14.80
2019-05-25T05:42:14.933Z,14.78
2019-05-25T05:44:07.850Z,14.96
2019-05-25T05:45:07.856Z,14.92
2019-05-25T05:47:00.771Z,14.98
2019-05-25T05:48:00.784Z,15.01
2019-05-25T05:49:53.713Z,15.11
2019-05-25T05:50:53.705Z,15.07
2019-05-25T05:52:46.618Z,15.13
2019-05-25T05:53:46.623Z,15.20
2019-05-25T05:55:39.531Z,15.21
2019-05-25T05:56:39.546Z,15.20
2019-05-25T05:58:32.956Z,15.21
2019-05-25T05:59:32.961Z,15.23
2019-05-25T06:01:25.876Z,15.21
2019-05-25T06:02:25.885Z,15.23
2019-05-25T06:04:18.799Z,15.25
2019-05-25T06:05:18.804Z,15.21
2019-05-25T06:07:11.718Z,15.21
2019-05-25T06:08:11.730Z,15.23
2019-05-25T06:10:04.648Z,15.41
2019-05-25T06:11:04.654Z,15.39
2019-05-25T06:12:57.573Z,15.34
2019-05-25T06:13:57.579Z,15.41
2019-05-25T06:15:50.486Z,15.47
2019-05-25T06:16:50.500Z,15.39
2019-05-25T06:18:43.911Z,15.44
2019-05-25T06:19:43.918Z,15.53
2019-05-25T06:21:36.833Z,15.59
2019-05-25T06:22:36.846Z,15.68
2019-05-25T06:24:29.763Z,15.69
2019-05-25T06:25:29.777Z,15.78
2019-05-25T06:27:27.610Z,15.78
2019-05-25T06:28:23.193Z,15.92
2019-05-25T06:30:16.112Z,15.96
2019-05-25T06:31:16.122Z,16.00
2019-05-25T06:33:09.032Z,16.11
2019-05-25T06:34:09.044Z,15.90
2019-05-25T06:36:01.955Z,15.80
2019-05-25T06:37:01.974Z,15.92
2019-05-25T06:38:54.882Z,15.90
2019-05-25T06:39:54.889Z,15.86
2019-05-25T06:41:47.802Z,15.96
2019-05-25T06:42:47.817Z,16.01
2019-05-25T06:44:40.734Z,15.86
2019-05-25T06:45:40.739Z,15.90
2019-05-25T06:47:33.653Z,15.87
2019-05-25T06:48:33.666Z,15.76
2019-05-25T06:50:26.580Z,15.92
2019-05-25T06:51:26.590Z,16.04
2019-05-25T06:53:19.507Z,15.97
2019-05-25T06:54:19.515Z,15.97
2019-05-25T06:56:12.426Z,15.68
2019-05-25T06:57:12.503Z,15.78
2019-05-25T06:59:05.360Z,15.68
2019-05-25T07:00:05.367Z,15.65
2019-05-25T07:01:58.281Z,15.76
2019-05-25T07:02:58.294Z,15.80
2019-05-25T07:04:51.521Z,15.94
2019-05-25T07:05:51.221Z,15.96
2019-05-25T07:07:44.204Z,16.08
2019-05-25T07:08:44.149Z,16.05
2019-05-25T07:10:37.065Z,16.09
2019-05-25T07:11:37.073Z,15.96
2019-05-25T07:13:29.993Z,16.00
2019-05-25T07:14:30.006Z,16.00
2019-05-25T07:16:22.914Z,16.24
2019-05-25T07:17:22.927Z,16.45
2019-05-25T07:19:15.850Z,16.60
2019-05-25T07:20:15.860Z,16.78
2019-05-25T07:22:08.774Z,17.11
2019-05-25T07:23:08.789Z,17.21
2019-05-25T07:25:01.711Z,17.26
2019-05-25T07:26:01.718Z,17.19
2019-05-25T07:27:59.474Z,17.01
2019-05-25T07:28:54.649Z,16.93
2019-05-25T07:30:47.573Z,16.86
2019-05-25T07:31:47.579Z,16.89
2019-05-25T07:33:40.499Z,16.76
2019-05-25T07:34:40.511Z,16.89
2019-05-25T07:36:33.424Z,17.07
2019-05-25T07:37:33.441Z,17.18
2019-05-25T07:39:26.371Z,17.48
2019-05-25T07:40:26.371Z,17.64
2019-05-25T07:42:20.090Z,17.54
2019-05-25T07:43:19.303Z,17.41
2019-05-25T07:45:12.718Z,17.31
2019-05-25T07:46:12.730Z,17.15
2019-05-25T07:48:05.667Z,17.11
2019-05-25T07:49:05.692Z,17.31
2019-05-25T07:50:58.603Z,17.41
2019-05-25T07:51:58.611Z,17.25
2019-05-25T07:53:51.531Z,17.34
2019-05-25T07:54:51.542Z,17.40
2019-05-25T07:56:44.459Z,17.19
2019-05-25T07:57:44.473Z,17.00
2019-05-25T07:59:37.433Z,16.93
2019-05-25T08:00:37.402Z,17.06
2019-05-25T08:02:30.334Z,16.79
2019-05-25T08:03:30.352Z,16.94
2019-05-25T08:05:23.328Z,16.88
2019-05-25T08:06:23.291Z,16.78
2019-05-25T08:08:16.225Z,16.83
2019-05-25T08:09:16.346Z,16.88
2019-05-25T08:11:09.218Z,17.00
2019-05-25T08:12:09.181Z,17.04
2019-05-25T08:14:02.179Z,17.33
2019-05-25T08:15:02.192Z,17.30
2019-05-25T08:16:55.105Z,17.31
2019-05-25T08:17:55.119Z,17.30
2019-05-25T08:19:48.115Z,17.26
2019-05-25T08:20:48.050Z,17.41
2019-05-25T08:22:41.029Z,17.58
2019-05-25T08:23:41.034Z,17.52
2019-05-25T08:25:34.524Z,17.64
2019-05-25T08:26:33.970Z,17.64
2019-05-25T08:28:32.925Z,17.70
2019-05-25T08:29:26.900Z,17.72
2019-05-25T08:31:19.824Z,17.79
2019-05-25T08:32:19.833Z,17.82
2019-05-25T08:34:12.758Z,17.64
2019-05-25T08:35:12.767Z,17.62
2019-05-25T08:37:05.682Z,17.72
2019-05-25T08:38:05.695Z,17.78
2019-05-25T08:39:58.634Z,17.77
2019-05-25T08:40:58.635Z,17.72
2019-05-25T08:42:51.557Z,17.95
2019-05-25T08:43:51.563Z,17.96
2019-05-25T08:45:44.998Z,18.02
2019-05-25T08:46:44.991Z,18.07
2019-05-25T08:48:37.937Z,18.18
2019-05-25T08:49:37.948Z,18.32
2019-05-25T08:51:30.870Z,18.36
2019-05-25T08:52:30.885Z,18.32
2019-05-25T08:54:23.810Z,18.35
2019-05-25T08:55:23.846Z,18.25
2019-05-25T08:57:18.717Z,17.93
2019-05-25T08:58:16.798Z,17.99
2019-05-25T09:00:09.728Z,18.15
2019-05-25T09:01:09.740Z,18.23
2019-05-25T09:03:02.686Z,18.11
2019-05-25T09:04:02.702Z,18.20
2019-05-25T09:05:55.625Z,18.32
2019-05-25T09:06:55.633Z,18.45
2019-05-25T09:08:48.564Z,18.69
2019-05-25T09:09:48.568Z,18.76
2019-05-25T09:11:41.495Z,18.99
2019-05-25T09:12:41.507Z,19.06
2019-05-25T09:14:34.434Z,19.04
2019-05-25T09:15:34.444Z,19.07
2019-05-25T09:17:27.366Z,19.26
2019-05-25T09:18:27.378Z,19.28
2019-05-25T09:20:20.307Z,19.26
2019-05-25T09:21:20.318Z,18.99
2019-05-25T09:23:13.236Z,19.04
2019-05-25T09:24:13.254Z,18.78
2019-05-25T09:26:06.212Z,18.50
2019-05-25T09:27:06.188Z,18.55
2019-05-25T09:29:04.621Z,18.85
2019-05-25T09:29:59.122Z,18.95
2019-05-25T09:31:52.091Z,19.14
2019-05-25T09:32:52.059Z,19.19
2019-05-25T09:34:44.984Z,18.70
2019-05-25T09:35:46.640Z,18.94
2019-05-25T09:37:37.918Z,18.95
2019-05-25T09:38:37.931Z,18.87
2019-05-25T09:40:30.881Z,18.67
2019-05-25T09:41:30.879Z,18.90
2019-05-25T09:43:23.793Z,18.94
2019-05-25T09:44:23.805Z,18.98
2019-05-25T09:46:16.731Z,18.92
2019-05-25T09:47:16.741Z,18.99
2019-05-25T09:49:09.673Z,19.18
2019-05-25T09:50:09.683Z,19.40
2019-05-25T09:52:02.602Z,19.32
2019-05-25T09:53:02.615Z,19.33
2019-05-25T09:54:55.818Z,19.48
2019-05-25T09:55:55.554Z,19.55
2019-05-25T09:57:48.476Z,19.68
2019-05-25T09:58:48.494Z,19.74
2019-05-25T10:00:41.419Z,19.62
2019-05-25T10:01:41.431Z,19.48
2019-05-25T10:03:34.355Z,19.43
2019-05-25T10:04:34.371Z,19.51
2019-05-25T10:06:27.300Z,19.83
2019-05-25T10:07:27.309Z,20.13
2019-05-25T10:09:20.250Z,20.29
2019-05-25T10:10:20.253Z,20.54
2019-05-25T10:12:16.188Z,20.73
2019-05-25T10:13:13.192Z,20.77
2019-05-25T10:15:06.124Z,20.52
2019-05-25T10:16:06.147Z,20.28
2019-05-25T10:17:59.098Z,20.20
2019-05-25T10:18:59.070Z,20.29
2019-05-25T10:20:51.998Z,20.52
2019-05-25T10:21:52.034Z,20.54
2019-05-25T10:23:44.934Z,20.57
2019-05-25T10:24:44.945Z,20.80
2019-05-25T10:26:37.870Z,20.92
2019-05-25T10:27:37.882Z,20.98
2019-05-25T10:29:37.280Z,20.94
2019-05-25T10:30:30.823Z,20.89
2019-05-25T10:32:23.747Z,20.84
2019-05-25T10:33:23.803Z,20.82
2019-05-25T10:35:16.689Z,20.73
2019-05-25T10:36:16.698Z,20.55
2019-05-25T10:38:09.631Z,20.42
2019-05-25T10:39:09.637Z,20.51
2019-05-25T10:41:02.657Z,20.59
2019-05-25T10:42:02.691Z,20.62
2019-05-25T10:43:55.544Z,20.51
2019-05-25T10:44:55.568Z,20.39
2019-05-25T10:46:48.480Z,20.33
2019-05-25T10:47:48.490Z,20.24
2019-05-25T10:49:41.419Z,20.35
2019-05-25T10:50:41.432Z,20.35
2019-05-25T10:52:34.354Z,20.29
2019-05-25T10:53:34.367Z,20.47
2019-05-25T10:55:27.291Z,20.26
2019-05-25T10:56:27.301Z,20.29
2019-05-25T10:58:20.222Z,20.24
2019-05-25T10:59:20.237Z,20.31
2019-05-25T11:01:13.177Z,20.67
2019-05-25T11:02:13.171Z,20.76
2019-05-25T11:04:07.104Z,20.70
2019-05-25T11:05:07.106Z,20.57
2019-05-25T11:07:00.033Z,20.58
2019-05-25T11:08:00.044Z,20.59
2019-05-25T11:09:53.461Z,20.55
2019-05-25T11:10:53.474Z,20.76
2019-05-25T11:12:46.396Z,20.89
2019-05-25T11:13:46.414Z,20.94
2019-05-25T11:15:39.435Z,20.94
2019-05-25T11:16:39.370Z,20.84
2019-05-25T11:18:32.292Z,20.87
2019-05-25T11:19:32.335Z,20.74
2019-05-25T11:21:25.244Z,20.74
2019-05-25T11:22:25.254Z,20.54
2019-05-25T11:24:18.198Z,20.58
2019-05-25T11:25:18.198Z,20.47
2019-05-25T11:27:11.123Z,20.41
2019-05-25T11:28:11.225Z,20.47
2019-05-25T11:30:08.930Z,20.73
2019-05-25T11:31:04.075Z,20.85
2019-05-25T11:32:56.997Z,20.89
2019-05-25T11:33:57.016Z,20.91
2019-05-25T11:35:49.935Z,21.13
2019-05-25T11:36:49.949Z,20.97
2019-05-25T11:38:42.921Z,20.73
2019-05-25T11:39:42.890Z,20.84
2019-05-25T11:41:35.931Z,21.13
2019-05-25T11:42:35.834Z,21.22
2019-05-25T11:44:28.753Z,21.28
2019-05-25T11:45:28.771Z,21.19
2019-05-25T11:47:21.736Z,21.27
2019-05-25T11:48:21.710Z,21.27
2019-05-25T11:50:14.633Z,21.46
2019-05-25T11:51:14.648Z,21.46
2019-05-25T11:53:07.569Z,21.22
2019-05-25T11:54:07.589Z,21.31
2019-05-25T11:56:00.515Z,21.14
2019-05-25T11:57:00.526Z,21.27
2019-05-25T11:58:53.951Z,21.22
2019-05-25T11:59:53.982Z,21.37
2019-05-25T12:01:46.951Z,21.34
2019-05-25T12:02:46.960Z,21.43
2019-05-25T12:04:39.915Z,21.24
2019-05-25T12:05:39.941Z,21.28
2019-05-25T12:07:32.881Z,21.31
2019-05-25T12:08:32.841Z,21.58
2019-05-25T12:10:25.958Z,21.65
2019-05-25T12:11:25.873Z,21.65
2019-05-25T12:13:18.814Z,21.68
2019-05-25T12:14:18.773Z,21.79
2019-05-25T12:16:11.781Z,21.79
2019-05-25T12:17:11.723Z,21.79
2019-05-25T12:19:04.685Z,21.77
2019-05-25T12:20:04.665Z,21.80
2019-05-25T12:21:57.687Z,21.46
2019-05-25T12:22:57.608Z,21.40
2019-05-25T12:24:50.540Z,21.35
2019-05-25T12:25:50.585Z,21.25
2019-05-25T12:27:43.494Z,21.29
2019-05-25T12:28:43.492Z,21.28
2019-05-25T12:30:40.918Z,21.07
2019-05-25T12:31:36.516Z,21.16
2019-05-25T12:33:29.429Z,21.28
2019-05-25T12:34:29.578Z,21.37
2019-05-25T12:36:22.533Z,21.31
2019-05-25T12:37:22.387Z,21.25
2019-05-25T12:39:15.321Z,21.25
2019-05-25T12:40:15.326Z,21.24
2019-05-25T12:42:08.270Z,21.38
2019-05-25T12:43:08.806Z,21.43
2019-05-25T12:45:01.257Z,21.58
2019-05-25T12:46:01.208Z,21.67
2019-05-25T12:47:54.496Z,21.82
2019-05-25T12:48:54.205Z,21.98
2019-05-25T12:50:47.142Z,21.98
2019-05-25T12:51:47.147Z,21.88
2019-05-25T12:53:40.067Z,21.86
2019-05-25T12:54:40.180Z,21.91
2019-05-25T12:56:33.016Z,21.75
2019-05-25T12:57:33.029Z,21.69
2019-05-25T12:59:25.964Z,21.71
2019-05-25T13:00:25.971Z,21.54
2019-05-25T13:02:18.902Z,21.59
2019-05-25T13:03:18.913Z,21.37
2019-05-25T13:05:11.859Z,21.49
2019-05-25T13:06:11.873Z,21.58
2019-05-25T13:08:04.802Z,21.52
2019-05-25T13:09:04.819Z,21.58
2019-05-25T13:10:57.748Z,21.65
2019-05-25T13:11:57.755Z,21.77
2019-05-25T13:13:50.677Z,21.94
2019-05-25T13:14:50.693Z,22.02
2019-05-25T13:16:43.618Z,21.99
2019-05-25T13:17:43.635Z,21.99
2019-05-25T13:19:36.563Z,21.99
2019-05-25T13:20:36.583Z,21.98
2019-05-25T13:22:29.527Z,22.43
2019-05-25T13:23:29.541Z,22.54
2019-05-25T13:25:22.468Z,22.65
2019-05-25T13:26:22.481Z,22.42
2019-05-25T13:28:15.415Z,22.25
2019-05-25T13:29:15.437Z,22.10
2019-05-25T13:31:11.718Z,22.00
2019-05-25T13:32:08.369Z,21.90
2019-05-25T13:34:01.296Z,22.15
2019-05-25T13:35:01.329Z,22.18
2019-05-25T13:36:54.244Z,22.15
2019-05-25T13:37:54.257Z,22.10
2019-05-25T13:39:47.178Z,22.21
2019-05-25T13:40:47.194Z,21.98
2019-05-25T13:42:40.152Z,22.00
2019-05-25T13:43:40.155Z,22.00
2019-05-25T13:45:33.064Z,21.82
2019-05-25T13:46:33.113Z,21.75
2019-05-25T13:48:25.996Z,21.77
2019-05-25T13:49:26.008Z,21.65
2019-05-25T13:51:18.935Z,21.61
2019-05-25T13:52:18.949Z,21.50
2019-05-25T13:54:11.873Z,21.38
2019-05-25T13:55:11.889Z,21.22
2019-05-25T13:57:04.814Z,20.98
2019-05-25T13:58:04.825Z,20.95
2019-05-25T13:59:57.745Z,21.03
2019-05-25T14:00:57.762Z,21.06
2019-05-25T14:02:50.688Z,21.13
2019-05-25T14:03:50.698Z,21.25
2019-05-25T14:05:43.626Z,21.40
2019-05-25T14:06:43.635Z,21.27
2019-05-25T14:08:36.570Z,21.27
2019-05-25T14:09:36.572Z,21.32
2019-05-25T14:11:29.503Z,21.29
2019-05-25T14:12:29.515Z,21.38
2019-05-25T14:14:24.542Z,21.46
2019-05-25T14:15:22.454Z,21.46
2019-05-25T14:17:15.382Z,21.21
2019-05-25T14:18:15.394Z,21.25
2019-05-25T14:20:08.331Z,21.42
2019-05-25T14:21:08.351Z,21.52
2019-05-25T14:23:02.131Z,21.67
2019-05-25T14:24:01.334Z,21.49
2019-05-25T14:25:54.208Z,21.29
2019-05-25T14:26:54.219Z,21.43
2019-05-25T14:28:47.151Z,21.59
2019-05-25T14:29:47.158Z,21.58
2019-05-25T14:31:45.678Z,21.74
2019-05-25T14:32:40.260Z,21.68
2019-05-25T14:34:33.013Z,21.52
2019-05-25T14:35:33.048Z,21.79
2019-05-25T14:37:25.956Z,21.88
2019-05-25T14:38:25.967Z,21.80
2019-05-25T14:40:18.918Z,21.98
2019-05-25T14:41:18.921Z,22.06
2019-05-25T14:43:11.876Z,22.12
2019-05-25T14:44:11.879Z,22.10
2019-05-25T14:46:04.844Z,22.20
2019-05-25T14:47:04.818Z,21.98
2019-05-25T14:48:57.797Z,22.15
2019-05-25T14:49:57.765Z,22.18
2019-05-25T14:51:50.773Z,22.20
2019-05-25T14:52:50.702Z,22.28
2019-05-25T14:54:43.624Z,22.05
2019-05-25T14:55:43.640Z,22.14
2019-05-25T14:57:36.567Z,22.02
2019-05-25T14:58:36.629Z,21.99
2019-05-25T15:00:29.499Z,22.18
2019-05-25T15:01:29.515Z,22.14
2019-05-25T15:03:22.450Z,21.99
2019-05-25T15:04:22.463Z,21.77
2019-05-25T15:06:15.575Z,21.69
2019-05-25T15:07:15.610Z,21.72
2019-05-25T15:09:08.514Z,21.68
2019-05-25T15:10:08.524Z,21.67
2019-05-25T15:12:01.475Z,21.64
2019-05-25T15:13:01.466Z,21.80
2019-05-25T15:14:54.377Z,21.96
2019-05-25T15:15:54.395Z,22.03
2019-05-25T15:17:47.322Z,22.12
2019-05-25T15:18:47.333Z,22.17
2019-05-25T15:20:40.305Z,22.20
2019-05-25T15:21:40.334Z,22.18
2019-05-25T15:23:33.194Z,22.20
2019-05-25T15:24:33.203Z,22.05
2019-05-25T15:26:26.132Z,22.12
2019-05-25T15:27:26.140Z,22.22
2019-05-25T15:29:19.059Z,22.40
2019-05-25T15:30:19.078Z,22.54
2019-05-25T15:32:20.066Z,22.49
2019-05-25T15:33:12.056Z,22.57
2019-05-25T15:35:04.972Z,22.51
2019-05-25T15:36:04.991Z,22.46
2019-05-25T15:37:57.912Z,22.52
2019-05-25T15:38:57.922Z,22.57
2019-05-25T15:40:50.842Z,22.64
2019-05-25T15:41:50.866Z,22.60
2019-05-25T15:43:43.788Z,22.51
2019-05-25T15:44:43.801Z,22.54
2019-05-25T15:46:36.726Z,22.47
2019-05-25T15:47:36.781Z,22.39
2019-05-25T15:49:33.162Z,22.61
2019-05-25T15:50:29.676Z,22.55
2019-05-25T15:52:22.602Z,22.70
2019-05-25T15:53:22.613Z,22.80
2019-05-25T15:55:15.540Z,23.02
2019-05-25T15:56:15.551Z,22.88
2019-05-25T15:58:08.479Z,23.00
2019-05-25T15:59:08.492Z,22.90
2019-05-25T16:01:01.418Z,22.85
2019-05-25T16:02:01.434Z,22.79
2019-05-25T16:03:54.364Z,22.77
2019-05-25T16:04:54.375Z,22.94
2019-05-25T16:06:47.302Z,22.94
2019-05-25T16:07:47.314Z,22.88
2019-05-25T16:09:40.243Z,22.94
2019-05-25T16:10:40.300Z,22.85
2019-05-25T16:12:33.187Z,22.88
2019-05-25T16:13:33.197Z,22.82
2019-05-25T16:15:26.620Z,22.72
2019-05-25T16:16:30.130Z,22.65
2019-05-25T16:18:20.051Z,22.80
2019-05-25T16:19:20.064Z,22.76
2019-05-25T16:21:12.989Z,22.62
2019-05-25T16:22:13.006Z,22.62
2019-05-25T16:24:08.069Z,22.46
2019-05-25T16:25:05.955Z,22.42
2019-05-25T16:26:58.874Z,22.27
2019-05-25T16:27:58.897Z,22.25
2019-05-25T16:29:52.302Z,22.21
2019-05-25T16:30:52.313Z,22.27
2019-05-25T16:33:10.791Z,22.25
2019-05-25T16:33:45.250Z,22.24
2019-05-25T16:35:38.170Z,22.05
2019-05-25T16:36:38.186Z,21.98
2019-05-25T16:38:31.113Z,21.69
2019-05-25T16:39:31.122Z,21.69
2019-05-25T16:41:24.040Z,21.82
2019-05-25T16:42:24.056Z,21.67
2019-05-25T16:44:17.476Z,21.67
2019-05-25T16:45:17.486Z,21.71
2019-05-25T16:47:10.419Z,21.46
2019-05-25T16:48:10.426Z,21.54
2019-05-25T16:50:03.349Z,21.65
2019-05-25T16:51:03.361Z,21.53
2019-05-25T16:52:56.294Z,21.53
2019-05-25T16:53:56.311Z,21.68
2019-05-25T16:55:49.225Z,21.68
2019-05-25T16:56:49.241Z,21.75
2019-05-25T16:58:42.166Z,21.88
2019-05-25T16:59:42.174Z,21.98
2019-05-25T17:01:47.628Z,22.09
2019-05-25T17:02:35.108Z,22.10
2019-05-25T17:04:28.035Z,22.05
2019-05-25T17:05:28.052Z,21.99
2019-05-25T17:07:20.973Z,21.96
2019-05-25T17:08:20.985Z,21.96
2019-05-25T17:10:13.904Z,21.99
2019-05-25T17:11:13.919Z,22.00
2019-05-25T17:13:07.342Z,21.96
2019-05-25T17:14:07.352Z,21.99
2019-05-25T17:16:00.275Z,21.83
2019-05-25T17:17:00.291Z,21.80
2019-05-25T17:18:54.719Z,21.52
2019-05-25T17:19:54.713Z,21.47
2019-05-25T17:21:47.635Z,21.42
2019-05-25T17:22:47.653Z,21.31
2019-05-25T17:24:40.573Z,21.35
2019-05-25T17:25:40.582Z,21.31
2019-05-25T17:27:34.507Z,21.34
2019-05-25T17:28:34.518Z,21.37
2019-05-25T17:30:27.436Z,21.29
2019-05-25T17:31:27.452Z,21.32
2019-05-25T17:33:20.379Z,21.40
2019-05-25T17:34:20.387Z,21.43
2019-05-25T17:36:13.504Z,21.53
2019-05-25T17:37:13.322Z,21.54
2019-05-25T17:39:06.738Z,21.58
2019-05-25T17:40:06.753Z,21.61
2019-05-25T17:41:59.680Z,21.58
2019-05-25T17:42:59.713Z,21.54
2019-05-25T17:44:52.620Z,21.54
2019-05-25T17:45:52.627Z,21.64
2019-05-25T17:47:45.566Z,21.62
2019-05-25T17:48:45.563Z,21.54
2019-05-25T17:50:38.495Z,21.61
2019-05-25T17:51:38.507Z,21.52
2019-05-25T17:53:31.422Z,21.47
2019-05-25T17:54:31.434Z,21.43
2019-05-25T17:56:24.355Z,21.31
2019-05-25T17:57:24.371Z,21.40
2019-05-25T17:59:17.297Z,21.29
2019-05-25T18:00:17.302Z,21.16
2019-05-25T18:02:10.229Z,21.07
2019-05-25T18:03:10.240Z,20.97
2019-05-25T18:05:03.158Z,20.95
2019-05-25T18:06:03.174Z,20.91
2019-05-25T18:07:56.109Z,20.89
2019-05-25T18:08:56.108Z,20.88
2019-05-25T18:10:53.266Z,20.98
2019-05-25T18:11:49.045Z,20.99
2019-05-25T18:13:41.969Z,21.06
2019-05-25T18:14:41.982Z,20.97
2019-05-25T18:16:34.897Z,20.99
2019-05-25T18:17:34.914Z,20.95
2019-05-25T18:19:27.848Z,20.92
2019-05-25T18:20:27.852Z,20.80
2019-05-25T18:22:20.770Z,20.88
2019-05-25T18:23:20.893Z,20.82
2019-05-25T18:25:13.705Z,20.77
2019-05-25T18:26:13.716Z,20.82
2019-05-25T18:28:06.645Z,20.94
2019-05-25T18:29:06.652Z,20.98
2019-05-25T18:30:59.590Z,20.97
2019-05-25T18:31:59.617Z,21.04
2019-05-25T18:33:52.511Z,20.99